sensor_id;sensor_type;location;lat;lon;timestamp;P1;durP1;ratioP1;P2;durP2;ratioP2
64375;SDS011;50700;55.416;12.952;2022-09-24T00:01:59;4.10;;;1.92;;
64375;SDS011;50700;55.416;12.952;2022-09-24T00:04:26;3.80;;;2.20;;
64375;SDS011;50700;55.416;12.952;2022-09-24T00:06:52;1.95;;;1.85;;
64375;SDS011;50700;55.416;12.952;2022-09-24T00:09:19;2.88;;;1.90;;
64375;SDS011;50700;55.416;12.952;2022-09-24T00:11:48;3.22;;;1.70;;
64375;SDS011;50700;55.416;12.952;2022-09-24T00:14:16;1.80;;;1.60;;
64375;SDS011;50700;55.416;12.952;2022-09-24T00:16:43;3.17;;;1.80;;
64375;SDS011;50700;55.416;12.952;2022-09-24T00:19:10;2.33;;;2.13;;
64375;SDS011;50700;55.416;12.952;2022-09-24T00:21:38;3.40;;;1.88;;
64375;SDS011;50700;55.416;12.952;2022-09-24T00:24:06;2.50;;;1.90;;
64375;SDS011;50700;55.416;12.952;2022-09-24T00:26:33;2.78;;;2.10;;
64375;SDS011;50700;55.416;12.952;2022-09-24T00:29:19;1.80;;;1.70;;
64375;SDS011;50700;55.416;12.952;2022-09-24T00:31:45;2.25;;;2.00;;
64375;SDS011;50700;55.416;12.952;2022-09-24T00:34:11;4.65;;;1.98;;
64375;SDS011;50700;55.416;12.952;2022-09-24T00:36:38;1.98;;;1.80;;
64375;SDS011;50700;55.416;12.952;2022-09-24T00:39:04;1.80;;;1.70;;
64375;SDS011;50700;55.416;12.952;2022-09-24T00:41:32;2.97;;;2.05;;
64375;SDS011;50700;55.416;12.952;2022-09-24T00:43:58;2.10;;;1.88;;
64375;SDS011;50700;55.416;12.952;2022-09-24T00:48:51;2.45;;;1.98;;
64375;SDS011;50700;55.416;12.952;2022-09-24T00:51:20;2.03;;;1.83;;
64375;SDS011;50700;55.416;12.952;2022-09-24T00:53:47;2.25;;;1.83;;
64375;SDS011;50700;55.416;12.952;2022-09-24T00:56:15;1.85;;;1.75;;
64375;SDS011;50700;55.416;12.952;2022-09-24T00:58:43;2.17;;;1.98;;
64375;SDS011;50700;55.416;12.952;2022-09-24T01:01:11;2.42;;;2.08;;
64375;SDS011;50700;55.416;12.952;2022-09-24T01:03:37;2.08;;;1.88;;
64375;SDS011;50700;55.416;12.952;2022-09-24T01:06:08;2.40;;;1.80;;
64375;SDS011;50700;55.416;12.952;2022-09-24T01:08:34;2.25;;;2.05;;
64375;SDS011;50700;55.416;12.952;2022-09-24T01:16:14;2.00;;;1.90;;
64375;SDS011;50700;55.416;12.952;2022-09-24T01:18:46;2.22;;;1.92;;
64375;SDS011;50700;55.416;12.952;2022-09-24T01:21:57;1.90;;;1.80;;
64375;SDS011;50700;55.416;12.952;2022-09-24T01:27:02;1.88;;;1.77;;
64375;SDS011;50700;55.416;12.952;2022-09-24T01:29:49;3.03;;;2.30;;
64375;SDS011;50700;55.416;12.952;2022-09-24T01:32:38;2.00;;;1.90;;
64375;SDS011;50700;55.416;12.952;2022-09-24T01:37:38;3.42;;;2.50;;
64375;SDS011;50700;55.416;12.952;2022-09-24T01:40:06;3.00;;;2.13;;
64375;SDS011;50700;55.416;12.952;2022-09-24T01:42:35;2.83;;;2.13;;
64375;SDS011;50700;55.416;12.952;2022-09-24T01:45:02;2.60;;;2.40;;
64375;SDS011;50700;55.416;12.952;2022-09-24T01:47:35;2.38;;;2.17;;
64375;SDS011;50700;55.416;12.952;2022-09-24T01:50:04;3.42;;;2.50;;
64375;SDS011;50700;55.416;12.952;2022-09-24T01:52:33;3.90;;;2.42;;
64375;SDS011;50700;55.416;12.952;2022-09-24T01:55:00;2.42;;;2.22;;
64375;SDS011;50700;55.416;12.952;2022-09-24T01:57:28;4.25;;;2.95;;
64375;SDS011;50700;55.416;12.952;2022-09-24T02:00:04;2.42;;;2.22;;
64375;SDS011;50700;55.416;12.952;2022-09-24T02:07:44;3.55;;;2.22;;
64375;SDS011;50700;55.416;12.952;2022-09-24T02:10:15;2.30;;;2.10;;
64375;SDS011;50700;55.416;12.952;2022-09-24T02:12:42;1.85;;;1.70;;
64375;SDS011;50700;55.416;12.952;2022-09-24T02:15:21;3.25;;;2.15;;
64375;SDS011;50700;55.416;12.952;2022-09-24T02:17:51;2.22;;;2.03;;
64375;SDS011;50700;55.416;12.952;2022-09-24T02:20:20;2.67;;;2.42;;
64375;SDS011;50700;55.416;12.952;2022-09-24T02:22:47;2.58;;;2.38;;
64375;SDS011;50700;55.416;12.952;2022-09-24T02:25:15;6.13;;;2.22;;
64375;SDS011;50700;55.416;12.952;2022-09-24T02:27:43;2.38;;;2.17;;
64375;SDS011;50700;55.416;12.952;2022-09-24T02:30:09;3.50;;;2.22;;
64375;SDS011;50700;55.416;12.952;2022-09-24T02:32:37;4.22;;;2.00;;
64375;SDS011;50700;55.416;12.952;2022-09-24T02:35:05;3.63;;;2.00;;
64375;SDS011;50700;55.416;12.952;2022-09-24T02:37:34;4.30;;;2.30;;
64375;SDS011;50700;55.416;12.952;2022-09-24T02:40:01;2.90;;;2.10;;
64375;SDS011;50700;55.416;12.952;2022-09-24T02:42:28;3.40;;;2.25;;
64375;SDS011;50700;55.416;12.952;2022-09-24T02:44:55;2.80;;;2.60;;
64375;SDS011;50700;55.416;12.952;2022-09-24T02:47:24;2.70;;;2.30;;
64375;SDS011;50700;55.416;12.952;2022-09-24T02:49:50;3.38;;;2.00;;
64375;SDS011;50700;55.416;12.952;2022-09-24T02:52:16;3.00;;;2.25;;
64375;SDS011;50700;55.416;12.952;2022-09-24T02:54:45;2.85;;;2.00;;
64375;SDS011;50700;55.416;12.952;2022-09-24T02:57:11;2.10;;;1.90;;
64375;SDS011;50700;55.416;12.952;2022-09-24T02:59:37;4.13;;;2.17;;
64375;SDS011;50700;55.416;12.952;2022-09-24T03:02:04;3.53;;;2.10;;
64375;SDS011;50700;55.416;12.952;2022-09-24T03:04:31;2.00;;;1.80;;
64375;SDS011;50700;55.416;12.952;2022-09-24T03:06:57;2.25;;;2.05;;
64375;SDS011;50700;55.416;12.952;2022-09-24T03:09:24;2.42;;;2.22;;
64375;SDS011;50700;55.416;12.952;2022-09-24T03:11:50;2.13;;;2.00;;
64375;SDS011;50700;55.416;12.952;2022-09-24T03:14:16;2.30;;;2.10;;
64375;SDS011;50700;55.416;12.952;2022-09-24T03:16:42;2.40;;;2.20;;
64375;SDS011;50700;55.416;12.952;2022-09-24T03:19:09;2.40;;;2.13;;
64375;SDS011;50700;55.416;12.952;2022-09-24T03:21:35;3.22;;;2.10;;
64375;SDS011;50700;55.416;12.952;2022-09-24T03:24:01;2.38;;;2.10;;
64375;SDS011;50700;55.416;12.952;2022-09-24T03:26:28;3.88;;;2.13;;
64375;SDS011;50700;55.416;12.952;2022-09-24T03:28:54;4.03;;;2.28;;
64375;SDS011;50700;55.416;12.952;2022-09-24T03:31:20;3.80;;;2.20;;
64375;SDS011;50700;55.416;12.952;2022-09-24T03:33:48;2.30;;;2.10;;
64375;SDS011;50700;55.416;12.952;2022-09-24T03:36:19;2.13;;;1.92;;
64375;SDS011;50700;55.416;12.952;2022-09-24T03:38:47;2.40;;;2.20;;
64375;SDS011;50700;55.416;12.952;2022-09-24T03:41:14;3.88;;;2.30;;
64375;SDS011;50700;55.416;12.952;2022-09-24T03:43:41;2.33;;;2.03;;
64375;SDS011;50700;55.416;12.952;2022-09-24T03:46:08;2.97;;;2.42;;
64375;SDS011;50700;55.416;12.952;2022-09-24T03:48:35;3.53;;;2.40;;
64375;SDS011;50700;55.416;12.952;2022-09-24T03:51:03;2.90;;;2.25;;
64375;SDS011;50700;55.416;12.952;2022-09-24T03:53:29;2.53;;;2.33;;
64375;SDS011;50700;55.416;12.952;2022-09-24T03:55:55;3.33;;;2.42;;
64375;SDS011;50700;55.416;12.952;2022-09-24T03:58:22;2.47;;;2.28;;
64375;SDS011;50700;55.416;12.952;2022-09-24T04:00:52;2.55;;;2.30;;
64375;SDS011;50700;55.416;12.952;2022-09-24T04:03:19;3.88;;;3.58;;
64375;SDS011;50700;55.416;12.952;2022-09-24T04:05:46;2.50;;;2.20;;
64375;SDS011;50700;55.416;12.952;2022-09-24T04:08:12;4.07;;;2.30;;
64375;SDS011;50700;55.416;12.952;2022-09-24T04:10:38;2.78;;;2.50;;
64375;SDS011;50700;55.416;12.952;2022-09-24T04:13:04;3.08;;;2.30;;
64375;SDS011;50700;55.416;12.952;2022-09-24T04:15:30;2.97;;;2.33;;
64375;SDS011;50700;55.416;12.952;2022-09-24T04:17:57;3.30;;;2.65;;
64375;SDS011;50700;55.416;12.952;2022-09-24T04:20:24;3.40;;;2.50;;
64375;SDS011;50700;55.416;12.952;2022-09-24T04:22:55;2.50;;;1.77;;
64375;SDS011;50700;55.416;12.952;2022-09-24T04:25:22;2.75;;;2.28;;
64375;SDS011;50700;55.416;12.952;2022-09-24T04:27:52;3.20;;;2.53;;
64375;SDS011;50700;55.416;12.952;2022-09-24T04:30:18;2.25;;;2.05;;
64375;SDS011;50700;55.416;12.952;2022-09-24T04:32:45;2.78;;;2.35;;
64375;SDS011;50700;55.416;12.952;2022-09-24T04:35:11;3.22;;;2.33;;
64375;SDS011;50700;55.416;12.952;2022-09-24T04:37:37;3.15;;;2.90;;
64375;SDS011;50700;55.416;12.952;2022-09-24T04:40:04;2.95;;;2.63;;
64375;SDS011;50700;55.416;12.952;2022-09-24T04:42:34;2.85;;;2.63;;
64375;SDS011;50700;55.416;12.952;2022-09-24T04:45:00;4.20;;;2.63;;
64375;SDS011;50700;55.416;12.952;2022-09-24T04:47:27;3.60;;;2.65;;
64375;SDS011;50700;55.416;12.952;2022-09-24T04:49:53;7.28;;;2.78;;
64375;SDS011;50700;55.416;12.952;2022-09-24T04:52:19;11.35;;;4.13;;
64375;SDS011;50700;55.416;12.952;2022-09-24T04:54:54;2.42;;;2.15;;
64375;SDS011;50700;55.416;12.952;2022-09-24T04:57:22;4.13;;;2.90;;
64375;SDS011;50700;55.416;12.952;2022-09-24T04:59:48;5.20;;;2.92;;
64375;SDS011;50700;55.416;12.952;2022-09-24T05:02:14;3.10;;;2.80;;
64375;SDS011;50700;55.416;12.952;2022-09-24T05:04:41;4.22;;;2.72;;
64375;SDS011;50700;55.416;12.952;2022-09-24T05:07:08;3.20;;;2.83;;
64375;SDS011;50700;55.416;12.952;2022-09-24T05:09:34;3.92;;;2.85;;
64375;SDS011;50700;55.416;12.952;2022-09-24T05:12:01;3.08;;;2.78;;
64375;SDS011;50700;55.416;12.952;2022-09-24T05:14:27;2.90;;;2.70;;
64375;SDS011;50700;55.416;12.952;2022-09-24T05:16:54;3.60;;;2.60;;
64375;SDS011;50700;55.416;12.952;2022-09-24T05:19:20;2.95;;;2.25;;
64375;SDS011;50700;55.416;12.952;2022-09-24T05:21:46;2.75;;;2.55;;
64375;SDS011;50700;55.416;12.952;2022-09-24T05:24:13;3.42;;;2.60;;
64375;SDS011;50700;55.416;12.952;2022-09-24T05:26:39;2.70;;;2.50;;
64375;SDS011;50700;55.416;12.952;2022-09-24T05:29:24;3.80;;;2.40;;
64375;SDS011;50700;55.416;12.952;2022-09-24T05:31:50;4.00;;;2.47;;
64375;SDS011;50700;55.416;12.952;2022-09-24T05:34:16;2.10;;;1.90;;
64375;SDS011;50700;55.416;12.952;2022-09-24T05:36:43;3.78;;;2.40;;
64375;SDS011;50700;55.416;12.952;2022-09-24T05:39:09;3.08;;;2.40;;
64375;SDS011;50700;55.416;12.952;2022-09-24T05:41:36;2.40;;;2.20;;
64375;SDS011;50700;55.416;12.952;2022-09-24T05:44:02;2.63;;;2.30;;
64375;SDS011;50700;55.416;12.952;2022-09-24T05:46:29;2.97;;;2.50;;
64375;SDS011;50700;55.416;12.952;2022-09-24T05:48:55;3.72;;;2.60;;
64375;SDS011;50700;55.416;12.952;2022-09-24T05:51:21;9.07;;;2.75;;
64375;SDS011;50700;55.416;12.952;2022-09-24T05:53:47;3.28;;;2.58;;
64375;SDS011;50700;55.416;12.952;2022-09-24T05:56:14;4.57;;;2.63;;
64375;SDS011;50700;55.416;12.952;2022-09-24T05:58:40;4.18;;;2.70;;
64375;SDS011;50700;55.416;12.952;2022-09-24T06:01:07;4.18;;;2.55;;
64375;SDS011;50700;55.416;12.952;2022-09-24T06:03:33;3.45;;;2.38;;
64375;SDS011;50700;55.416;12.952;2022-09-24T06:05:59;3.35;;;2.63;;
64375;SDS011;50700;55.416;12.952;2022-09-24T06:08:29;2.65;;;2.45;;
64375;SDS011;50700;55.416;12.952;2022-09-24T06:11:00;2.80;;;2.42;;
64375;SDS011;50700;55.416;12.952;2022-09-24T06:13:27;2.60;;;2.40;;
64375;SDS011;50700;55.416;12.952;2022-09-24T06:16:00;2.92;;;2.70;;
64375;SDS011;50700;55.416;12.952;2022-09-24T06:18:26;4.28;;;2.67;;
64375;SDS011;50700;55.416;12.952;2022-09-24T06:20:52;3.78;;;2.50;;
64375;SDS011;50700;55.416;12.952;2022-09-24T06:23:19;3.50;;;3.03;;
64375;SDS011;50700;55.416;12.952;2022-09-24T06:25:49;3.72;;;2.72;;
64375;SDS011;50700;55.416;12.952;2022-09-24T06:28:15;3.20;;;2.50;;
64375;SDS011;50700;55.416;12.952;2022-09-24T06:30:41;3.75;;;3.17;;
64375;SDS011;50700;55.416;12.952;2022-09-24T06:33:08;2.92;;;2.58;;
64375;SDS011;50700;55.416;12.952;2022-09-24T06:35:35;3.10;;;2.80;;
64375;SDS011;50700;55.416;12.952;2022-09-24T06:38:02;2.90;;;2.70;;
64375;SDS011;50700;55.416;12.952;2022-09-24T06:40:28;3.60;;;2.80;;
64375;SDS011;50700;55.416;12.952;2022-09-24T06:42:54;3.67;;;2.70;;
64375;SDS011;50700;55.416;12.952;2022-09-24T06:45:21;4.25;;;2.78;;
64375;SDS011;50700;55.416;12.952;2022-09-24T06:47:54;3.88;;;2.85;;
64375;SDS011;50700;55.416;12.952;2022-09-24T06:50:21;3.10;;;2.80;;
64375;SDS011;50700;55.416;12.952;2022-09-24T06:52:47;3.70;;;2.65;;
64375;SDS011;50700;55.416;12.952;2022-09-24T06:55:14;3.05;;;2.75;;
64375;SDS011;50700;55.416;12.952;2022-09-24T06:57:40;3.05;;;2.75;;
64375;SDS011;50700;55.416;12.952;2022-09-24T07:00:07;5.25;;;2.72;;
64375;SDS011;50700;55.416;12.952;2022-09-24T07:02:33;4.70;;;2.88;;
64375;SDS011;50700;55.416;12.952;2022-09-24T07:05:00;2.83;;;2.63;;
64375;SDS011;50700;55.416;12.952;2022-09-24T07:07:26;5.18;;;2.97;;
64375;SDS011;50700;55.416;12.952;2022-09-24T07:10:00;3.03;;;2.80;;
64375;SDS011;50700;55.416;12.952;2022-09-24T07:12:30;3.30;;;2.50;;
64375;SDS011;50700;55.416;12.952;2022-09-24T07:14:56;3.22;;;2.92;;
64375;SDS011;50700;55.416;12.952;2022-09-24T07:17:26;3.15;;;2.63;;
64375;SDS011;50700;55.416;12.952;2022-09-24T07:19:52;2.90;;;2.60;;
64375;SDS011;50700;55.416;12.952;2022-09-24T07:22:19;4.30;;;2.97;;
64375;SDS011;50700;55.416;12.952;2022-09-24T07:24:45;2.90;;;2.70;;
64375;SDS011;50700;55.416;12.952;2022-09-24T07:27:12;3.30;;;3.00;;
64375;SDS011;50700;55.416;12.952;2022-09-24T07:29:39;2.80;;;2.50;;
64375;SDS011;50700;55.416;12.952;2022-09-24T07:32:05;3.15;;;2.63;;
64375;SDS011;50700;55.416;12.952;2022-09-24T07:34:31;4.00;;;2.63;;
64375;SDS011;50700;55.416;12.952;2022-09-24T07:36:58;7.25;;;2.78;;
64375;SDS011;50700;55.416;12.952;2022-09-24T07:39:25;4.25;;;2.70;;
64375;SDS011;50700;55.416;12.952;2022-09-24T07:41:51;3.10;;;2.72;;
64375;SDS011;50700;55.416;12.952;2022-09-24T07:44:18;3.88;;;2.83;;
64375;SDS011;50700;55.416;12.952;2022-09-24T07:46:50;4.47;;;2.90;;
64375;SDS011;50700;55.416;12.952;2022-09-24T07:49:16;4.70;;;2.53;;
64375;SDS011;50700;55.416;12.952;2022-09-24T07:51:42;3.70;;;2.70;;
64375;SDS011;50700;55.416;12.952;2022-09-24T07:54:09;4.85;;;2.50;;
64375;SDS011;50700;55.416;12.952;2022-09-24T07:56:35;4.35;;;2.30;;
64375;SDS011;50700;55.416;12.952;2022-09-24T07:59:02;2.47;;;2.28;;
64375;SDS011;50700;55.416;12.952;2022-09-24T08:01:30;2.80;;;2.60;;
64375;SDS011;50700;55.416;12.952;2022-09-24T08:03:56;2.80;;;2.50;;
64375;SDS011;50700;55.416;12.952;2022-09-24T08:06:23;2.97;;;2.28;;
64375;SDS011;50700;55.416;12.952;2022-09-24T08:08:50;2.55;;;2.35;;
64375;SDS011;50700;55.416;12.952;2022-09-24T08:11:20;2.75;;;2.55;;
64375;SDS011;50700;55.416;12.952;2022-09-24T08:13:46;3.33;;;2.40;;
64375;SDS011;50700;55.416;12.952;2022-09-24T08:16:13;5.22;;;2.70;;
64375;SDS011;50700;55.416;12.952;2022-09-24T08:18:41;5.38;;;2.38;;
64375;SDS011;50700;55.416;12.952;2022-09-24T08:21:08;4.90;;;2.30;;
64375;SDS011;50700;55.416;12.952;2022-09-24T08:23:39;2.58;;;2.35;;
64375;SDS011;50700;55.416;12.952;2022-09-24T08:26:05;3.75;;;2.95;;
64375;SDS011;50700;55.416;12.952;2022-09-24T08:28:31;5.75;;;2.45;;
64375;SDS011;50700;55.416;12.952;2022-09-24T08:30:58;5.03;;;2.65;;
64375;SDS011;50700;55.416;12.952;2022-09-24T08:33:25;2.97;;;2.63;;
64375;SDS011;50700;55.416;12.952;2022-09-24T08:35:51;2.75;;;2.50;;
64375;SDS011;50700;55.416;12.952;2022-09-24T08:38:17;4.28;;;2.28;;
64375;SDS011;50700;55.416;12.952;2022-09-24T08:45:54;3.03;;;2.63;;
64375;SDS011;50700;55.416;12.952;2022-09-24T08:48:41;2.90;;;2.47;;
64375;SDS011;50700;55.416;12.952;2022-09-24T08:51:13;4.57;;;2.75;;
64375;SDS011;50700;55.416;12.952;2022-09-24T08:56:08;2.78;;;2.33;;
64375;SDS011;50700;55.416;12.952;2022-09-24T08:58:45;2.55;;;2.30;;
64375;SDS011;50700;55.416;12.952;2022-09-24T09:01:16;3.35;;;2.65;;
64375;SDS011;50700;55.416;12.952;2022-09-24T09:11:35;3.33;;;2.70;;
64375;SDS011;50700;55.416;12.952;2022-09-24T09:19:16;5.28;;;2.67;;
64375;SDS011;50700;55.416;12.952;2022-09-24T09:22:17;8.18;;;3.72;;
64375;SDS011;50700;55.416;12.952;2022-09-24T09:24:49;2.95;;;2.63;;
64375;SDS011;50700;55.416;12.952;2022-09-24T09:27:16;3.38;;;2.80;;
64375;SDS011;50700;55.416;12.952;2022-09-24T09:29:43;3.47;;;2.80;;
64375;SDS011;50700;55.416;12.952;2022-09-24T09:37:42;3.45;;;3.15;;
64375;SDS011;50700;55.416;12.952;2022-09-24T09:43:00;5.13;;;3.00;;
64375;SDS011;50700;55.416;12.952;2022-09-24T09:45:29;3.53;;;2.90;;
64375;SDS011;50700;55.416;12.952;2022-09-24T09:47:56;6.78;;;3.10;;
64375;SDS011;50700;55.416;12.952;2022-09-24T09:50:27;3.00;;;2.80;;
64375;SDS011;50700;55.416;12.952;2022-09-24T09:52:54;3.88;;;3.08;;
64375;SDS011;50700;55.416;12.952;2022-09-24T09:55:25;7.32;;;3.25;;
64375;SDS011;50700;55.416;12.952;2022-09-24T09:57:52;5.03;;;3.28;;
64375;SDS011;50700;55.416;12.952;2022-09-24T10:00:26;3.50;;;3.20;;
64375;SDS011;50700;55.416;12.952;2022-09-24T10:02:53;4.32;;;3.40;;
64375;SDS011;50700;55.416;12.952;2022-09-24T10:05:20;3.60;;;2.65;;
64375;SDS011;50700;55.416;12.952;2022-09-24T10:07:46;3.28;;;2.97;;
64375;SDS011;50700;55.416;12.952;2022-09-24T10:10:19;3.22;;;2.92;;
64375;SDS011;50700;55.416;12.952;2022-09-24T10:12:51;5.28;;;3.72;;
64375;SDS011;50700;55.416;12.952;2022-09-24T10:15:18;5.43;;;3.05;;
64375;SDS011;50700;55.416;12.952;2022-09-24T10:17:45;4.05;;;3.22;;
64375;SDS011;50700;55.416;12.952;2022-09-24T10:20:15;4.45;;;3.33;;
64375;SDS011;50700;55.416;12.952;2022-09-24T10:22:46;8.25;;;3.70;;
64375;SDS011;50700;55.416;12.952;2022-09-24T10:25:18;4.13;;;3.72;;
64375;SDS011;50700;55.416;12.952;2022-09-24T10:27:45;6.57;;;3.05;;
64375;SDS011;50700;55.416;12.952;2022-09-24T10:30:13;4.93;;;3.30;;
64375;SDS011;50700;55.416;12.952;2022-09-24T10:32:58;3.78;;;3.13;;
64375;SDS011;50700;55.416;12.952;2022-09-24T10:35:27;4.47;;;3.45;;
64375;SDS011;50700;55.416;12.952;2022-09-24T10:37:54;4.25;;;3.42;;
64375;SDS011;50700;55.416;12.952;2022-09-24T10:40:36;5.82;;;3.40;;
64375;SDS011;50700;55.416;12.952;2022-09-24T10:43:03;5.27;;;3.40;;
64375;SDS011;50700;55.416;12.952;2022-09-24T10:45:35;8.55;;;4.07;;
64375;SDS011;50700;55.416;12.952;2022-09-24T10:48:49;5.55;;;3.58;;
64375;SDS011;50700;55.416;12.952;2022-09-24T10:53:38;6.40;;;3.72;;
64375;SDS011;50700;55.416;12.952;2022-09-24T10:56:26;3.80;;;3.40;;
64375;SDS011;50700;55.416;12.952;2022-09-24T11:01:25;4.68;;;3.50;;
64375;SDS011;50700;55.416;12.952;2022-09-24T11:04:06;5.53;;;3.45;;
64375;SDS011;50700;55.416;12.952;2022-09-24T11:06:48;3.45;;;3.15;;
64375;SDS011;50700;55.416;12.952;2022-09-24T11:22:15;4.10;;;3.50;;
64375;SDS011;50700;55.416;12.952;2022-09-24T11:27:29;4.97;;;3.90;;
64375;SDS011;50700;55.416;12.952;2022-09-24T11:30:12;4.55;;;3.80;;
64375;SDS011;50700;55.416;12.952;2022-09-24T11:32:46;4.22;;;3.83;;
64375;SDS011;50700;55.416;12.952;2022-09-24T11:42:49;5.30;;;3.78;;
64375;SDS011;50700;55.416;12.952;2022-09-24T11:53:38;4.97;;;4.18;;
64375;SDS011;50700;55.416;12.952;2022-09-24T11:56:12;4.90;;;3.67;;
64375;SDS011;50700;55.416;12.952;2022-09-24T12:01:19;4.57;;;4.10;;
64375;SDS011;50700;55.416;12.952;2022-09-24T12:03:50;4.80;;;4.07;;
64375;SDS011;50700;55.416;12.952;2022-09-24T12:06:40;6.25;;;3.53;;
64375;SDS011;50700;55.416;12.952;2022-09-24T12:09:16;4.13;;;3.72;;
64375;SDS011;50700;55.416;12.952;2022-09-24T12:11:47;6.25;;;3.78;;
64375;SDS011;50700;55.416;12.952;2022-09-24T12:14:19;4.88;;;3.72;;
64375;SDS011;50700;55.416;12.952;2022-09-24T12:16:48;4.88;;;4.28;;
64375;SDS011;50700;55.416;12.952;2022-09-24T12:21:44;3.72;;;3.10;;
64375;SDS011;50700;55.416;12.952;2022-09-24T12:26:57;4.65;;;3.75;;
64375;SDS011;50700;55.416;12.952;2022-09-24T12:29:33;5.22;;;3.70;;
64375;SDS011;50700;55.416;12.952;2022-09-24T12:35:18;6.25;;;3.95;;
64375;SDS011;50700;55.416;12.952;2022-09-24T12:37:49;4.72;;;3.97;;
64375;SDS011;50700;55.416;12.952;2022-09-24T12:40:39;4.38;;;3.90;;
64375;SDS011;50700;55.416;12.952;2022-09-24T12:43:22;10.32;;;4.70;;
64375;SDS011;50700;55.416;12.952;2022-09-24T12:45:58;4.47;;;4.07;;
64375;SDS011;50700;55.416;12.952;2022-09-24T12:48:26;5.25;;;3.80;;
64375;SDS011;50700;55.416;12.952;2022-09-24T12:50:56;4.43;;;3.92;;
64375;SDS011;50700;55.416;12.952;2022-09-24T12:53:23;4.80;;;3.88;;
64375;SDS011;50700;55.416;12.952;2022-09-24T12:55:57;4.13;;;3.72;;
64375;SDS011;50700;55.416;12.952;2022-09-24T12:58:28;4.68;;;4.25;;
64375;SDS011;50700;55.416;12.952;2022-09-24T13:03:35;5.15;;;3.60;;
64375;SDS011;50700;55.416;12.952;2022-09-24T13:06:02;5.30;;;4.50;;
64375;SDS011;50700;55.416;12.952;2022-09-24T13:08:38;5.00;;;3.97;;
64375;SDS011;50700;55.416;12.952;2022-09-24T13:11:23;6.05;;;5.13;;
64375;SDS011;50700;55.416;12.952;2022-09-24T13:13:57;4.90;;;4.40;;
64375;SDS011;50700;55.416;12.952;2022-09-24T13:16:23;4.47;;;4.05;;
64375;SDS011;50700;55.416;12.952;2022-09-24T13:18:54;5.18;;;4.68;;
64375;SDS011;50700;55.416;12.952;2022-09-24T13:21:21;6.30;;;4.65;;
64375;SDS011;50700;55.416;12.952;2022-09-24T13:23:49;6.07;;;4.07;;
64375;SDS011;50700;55.416;12.952;2022-09-24T13:28:52;4.90;;;4.40;;
64375;SDS011;50700;55.416;12.952;2022-09-24T13:33:59;5.65;;;4.72;;
64375;SDS011;50700;55.416;12.952;2022-09-24T13:36:28;8.48;;;4.88;;
64375;SDS011;50700;55.416;12.952;2022-09-24T13:44:21;5.45;;;4.18;;
64375;SDS011;50700;55.416;12.952;2022-09-24T13:46:49;6.90;;;4.78;;
64375;SDS011;50700;55.416;12.952;2022-09-24T13:49:17;6.10;;;4.50;;
64375;SDS011;50700;55.416;12.952;2022-09-24T13:51:46;6.93;;;4.32;;
64375;SDS011;50700;55.416;12.952;2022-09-24T13:57:48;5.43;;;4.93;;
64375;SDS011;50700;55.416;12.952;2022-09-24T13:59:43;4.93;;;4.43;;
64375;SDS011;50700;55.416;12.952;2022-09-24T14:05:06;4.63;;;4.20;;
64375;SDS011;50700;55.416;12.952;2022-09-24T14:07:34;4.78;;;4.38;;
64375;SDS011;50700;55.416;12.952;2022-09-24T14:10:05;6.55;;;4.60;;
64375;SDS011;50700;55.416;12.952;2022-09-24T14:12:32;6.75;;;4.50;;
64375;SDS011;50700;55.416;12.952;2022-09-24T14:14:58;5.28;;;4.78;;
64375;SDS011;50700;55.416;12.952;2022-09-24T14:17:24;4.70;;;4.30;;
64375;SDS011;50700;55.416;12.952;2022-09-24T14:19:54;5.93;;;4.43;;
64375;SDS011;50700;55.416;12.952;2022-09-24T14:22:37;6.18;;;4.45;;
64375;SDS011;50700;55.416;12.952;2022-09-24T14:27:30;5.78;;;4.93;;
64375;SDS011;50700;55.416;12.952;2022-09-24T14:30:05;6.40;;;4.72;;
64375;SDS011;50700;55.416;12.952;2022-09-24T14:32:35;5.68;;;4.90;;
64375;SDS011;50700;55.416;12.952;2022-09-24T14:35:06;7.53;;;4.65;;
64375;SDS011;50700;55.416;12.952;2022-09-24T14:37:37;6.00;;;4.40;;
64375;SDS011;50700;55.416;12.952;2022-09-24T14:40:11;5.57;;;4.63;;
64375;SDS011;50700;55.416;12.952;2022-09-24T14:42:42;7.68;;;4.78;;
64375;SDS011;50700;55.416;12.952;2022-09-24T14:45:16;6.22;;;4.63;;
64375;SDS011;50700;55.416;12.952;2022-09-24T14:47:44;4.43;;;4.00;;
64375;SDS011;50700;55.416;12.952;2022-09-24T14:53:13;4.40;;;4.00;;
64375;SDS011;50700;55.416;12.952;2022-09-24T14:55:44;4.57;;;3.85;;
64375;SDS011;50700;55.416;12.952;2022-09-24T15:01:12;4.82;;;4.20;;
64375;SDS011;50700;55.416;12.952;2022-09-24T15:03:41;4.40;;;3.90;;
64375;SDS011;50700;55.416;12.952;2022-09-24T15:06:16;6.18;;;3.58;;
64375;SDS011;50700;55.416;12.952;2022-09-24T15:08:43;6.13;;;3.90;;
64375;SDS011;50700;55.416;12.952;2022-09-24T15:11:16;5.32;;;4.30;;
64375;SDS011;50700;55.416;12.952;2022-09-24T15:13:43;4.20;;;3.67;;
64375;SDS011;50700;55.416;12.952;2022-09-24T15:18:48;7.15;;;4.22;;
64375;SDS011;50700;55.416;12.952;2022-09-24T15:21:17;4.22;;;3.75;;
64375;SDS011;50700;55.416;12.952;2022-09-24T15:23:43;4.63;;;3.92;;
64375;SDS011;50700;55.416;12.952;2022-09-24T15:26:09;4.60;;;4.13;;
64375;SDS011;50700;55.416;12.952;2022-09-24T15:28:36;4.72;;;4.10;;
64375;SDS011;50700;55.416;12.952;2022-09-24T15:31:02;4.85;;;3.70;;
64375;SDS011;50700;55.416;12.952;2022-09-24T15:33:28;4.45;;;3.47;;
64375;SDS011;50700;55.416;12.952;2022-09-24T15:35:54;4.45;;;4.03;;
64375;SDS011;50700;55.416;12.952;2022-09-24T15:38:20;4.78;;;4.20;;
64375;SDS011;50700;55.416;12.952;2022-09-24T15:40:46;4.53;;;3.42;;
64375;SDS011;50700;55.416;12.952;2022-09-24T15:43:24;4.20;;;3.80;;
64375;SDS011;50700;55.416;12.952;2022-09-24T15:45:50;4.65;;;4.25;;
64375;SDS011;50700;55.416;12.952;2022-09-24T15:48:16;7.68;;;4.30;;
64375;SDS011;50700;55.416;12.952;2022-09-24T15:50:44;4.38;;;3.97;;
64375;SDS011;50700;55.416;12.952;2022-09-24T15:53:15;5.43;;;4.22;;
64375;SDS011;50700;55.416;12.952;2022-09-24T15:55:42;4.38;;;3.97;;
64375;SDS011;50700;55.416;12.952;2022-09-24T15:58:12;4.47;;;3.97;;
64375;SDS011;50700;55.416;12.952;2022-09-24T16:00:38;5.30;;;4.07;;
64375;SDS011;50700;55.416;12.952;2022-09-24T16:03:13;5.10;;;4.53;;
64375;SDS011;50700;55.416;12.952;2022-09-24T16:05:42;5.57;;;4.60;;
64375;SDS011;50700;55.416;12.952;2022-09-24T16:08:08;4.80;;;4.20;;
64375;SDS011;50700;55.416;12.952;2022-09-24T16:10:34;4.75;;;4.25;;
64375;SDS011;50700;55.416;12.952;2022-09-24T16:13:01;5.95;;;4.50;;
64375;SDS011;50700;55.416;12.952;2022-09-24T16:15:27;4.72;;;4.15;;
64375;SDS011;50700;55.416;12.952;2022-09-24T16:17:53;6.55;;;4.55;;
64375;SDS011;50700;55.416;12.952;2022-09-24T16:20:19;7.88;;;4.93;;
64375;SDS011;50700;55.416;12.952;2022-09-24T16:22:45;5.38;;;4.57;;
64375;SDS011;50700;55.416;12.952;2022-09-24T16:25:12;8.23;;;4.90;;
64375;SDS011;50700;55.416;12.952;2022-09-24T16:27:38;6.20;;;4.60;;
64375;SDS011;50700;55.416;12.952;2022-09-24T16:30:05;5.57;;;4.95;;
64375;SDS011;50700;55.416;12.952;2022-09-24T16:32:32;7.57;;;4.97;;
64375;SDS011;50700;55.416;12.952;2022-09-24T16:34:58;7.00;;;4.80;;
64375;SDS011;50700;55.416;12.952;2022-09-24T16:37:24;6.13;;;4.68;;
64375;SDS011;50700;55.416;12.952;2022-09-24T16:39:50;5.05;;;4.45;;
64375;SDS011;50700;55.416;12.952;2022-09-24T16:42:17;6.28;;;4.30;;
64375;SDS011;50700;55.416;12.952;2022-09-24T16:44:43;9.07;;;5.15;;
64375;SDS011;50700;55.416;12.952;2022-09-24T16:47:09;7.50;;;4.90;;
64375;SDS011;50700;55.416;12.952;2022-09-24T16:49:35;6.03;;;5.05;;